WetterOnline ( https://www.wetteronline.ch )

Wetter aktuell Rheinstetten

Aktuelles Wetter: Rheinstetten (116m)

6-stündlich | Neueste Meldungen
Ortszeit Temperatur Wetter
Sa, 24.08. 8:00 16.4° C leicht bewölkt
Sa, 24.08. 2:00 15.0° C wolkenlos
Fr, 23.08. 20:00 26.3° C wolkenlos
Fr, 23.08. 14:00 26.7° C wolkenlos
Fr, 23.08. 8:00 14.6° C fast wolkenlos
Fr, 23.08. 2:00 12.4° C wolkenlos
Do, 22.08. 20:00 23.7° C wolkenlos
Do, 22.08. 14:00 25.0° C wolkenlos
Ortszeit Temperatur Wetter
Sa, 24.08. 10:30 20.7° C bewölkt
Sa, 24.08. 10:20 20.7° C bewölkt
Sa, 24.08. 10:10 20.2° C bewölkt
Sa, 24.08. 10:00 19.7° C bewölkt
Sa, 24.08. 9:50 19.7° C bewölkt
Sa, 24.08. 9:40 19.3° C bewölkt
Sa, 24.08. 9:30 18.9° C bewölkt
Sa, 24.08. 9:00 17.8° C fast wolkenlos
Sa, 24.08. 8:30 17.3° C wolkenlos
Sa, 24.08. 8:00 16.4° C leicht bewölkt
Sa, 24.08. 7:30 15.2° C wolkenlos
Ortszeit Relative Feuchte Sichtweite
Sa, 24.08. 8:00 79% 35 km
Sa, 24.08. 2:00 87% 30 km
Fr, 23.08. 20:00 36% 60 km
Fr, 23.08. 14:00 35% 55 km
Fr, 23.08. 8:00 82% 35 km
Fr, 23.08. 2:00 92% 35 km
Do, 22.08. 20:00 42% 60 km
Do, 22.08. 14:00 40% 35 km
Ortszeit Relative Feuchte Sichtweite
Sa, 24.08. 10:30 64% 40 km
Sa, 24.08. 10:20 64% -
Sa, 24.08. 10:10 65% -
Sa, 24.08. 10:00 67% 40 km
Sa, 24.08. 9:50 67% -
Sa, 24.08. 9:40 68% -
Sa, 24.08. 9:30 70% 35 km
Sa, 24.08. 9:00 74% 40 km
Sa, 24.08. 8:30 76% 35 km
Sa, 24.08. 8:00 79% 35 km
Sa, 24.08. 7:30 86% 30 km
Ortszeit Niederschlagsmenge Niederschlagsart
Sa, 24.08. 8:00 0.0 l/m2 in 12 Std. -
Sa, 24.08. 2:00 0.0 l/m2 in 6 Std. -
Fr, 23.08. 20:00 0.0 l/m2 in 12 Std. -
Fr, 23.08. 14:00 0.0 l/m2 in 6 Std. -
Fr, 23.08. 8:00 0.0 l/m2 in 12 Std. -
Fr, 23.08. 2:00 0.0 l/m2 in 6 Std. -
Do, 22.08. 20:00 0.0 l/m2 in 12 Std. -
Do, 22.08. 14:00 0.0 l/m2 in 6 Std. -
Ortszeit Niederschlagsmenge Niederschlagsart
Sa, 24.08. 10:30 0.0 l/m2 in 1 Std. -
Sa, 24.08. 10:20 keine Meldung -
Sa, 24.08. 10:10 keine Meldung -
Sa, 24.08. 10:00 0.0 l/m2 in 1 Std. -
Sa, 24.08. 9:50 keine Meldung -
Sa, 24.08. 9:40 keine Meldung -
Sa, 24.08. 9:30 0.0 l/m2 in 1 Std. -
Sa, 24.08. 9:00 0.0 l/m2 in 1 Std. -
Sa, 24.08. 8:30 0.0 l/m2 in 1 Std. -
Sa, 24.08. 8:00 0.0 l/m2 in 1 Std. -
Sa, 24.08. 7:30 0.0 l/m2 in 1 Std. -
Ortszeit Stärke Spitze Richtung
km/h Bft. km/h Grad Sektor
Sa, 24.08. 8:00 7 2 11 20° N
Sa, 24.08. 2:00 6 1 19 50° NO
Fr, 23.08. 20:00 13 3 33 50° NO
Fr, 23.08. 14:00 19 3 35 80° O
Fr, 23.08. 8:00 6 1 9 20° N
Fr, 23.08. 2:00 0 0 11 - -
Do, 22.08. 20:00 7 2 32 60° NO
Do, 22.08. 14:00 14 3 32 100° O
Ortszeit Stärke Spitze Richtung
km/h Bft. km/h Grad Sektor
Sa, 24.08. 10:30 11 2 14 30° NO
Sa, 24.08. 10:20 11 2 - 30° NO
Sa, 24.08. 10:10 13 3 - 30° NO
Sa, 24.08. 10:00 11 2 18 30° NO
Sa, 24.08. 9:50 11 2 - 30° NO
Sa, 24.08. 9:40 13 3 - 40° NO
Sa, 24.08. 9:30 11 2 18 30° NO
Sa, 24.08. 9:00 11 2 18 30° NO
Sa, 24.08. 8:30 11 2 14 30° NO
Sa, 24.08. 8:00 7 2 11 20° N
Sa, 24.08. 7:30 7 2 11 10° N
Ortszeit Untergrenze Bedeckung Gattung
total tief tief mittel hoch
Sa, 24.08. 8:00 1470 m 2/8 2/8 - - -
Sa, 24.08. 2:00 - 0/8 0/8 - - -
Fr, 23.08. 20:00 - 0/8 0/8 - - -
Fr, 23.08. 14:00 - 0/8 0/8 - - -
Fr, 23.08. 8:00 10500 m 2/8 0/8 - - -
Fr, 23.08. 2:00 - 0/8 0/8 - - -
Do, 22.08. 20:00 10500 m 0/8 0/8 - - -
Do, 22.08. 14:00 - 0/8 0/8 - - -
Ortszeit Bedeckungsgrad in Achtel und Wolkenuntergrenze
Sa, 24.08. 10:30 7(1500m)
Sa, 24.08. 10:20 7(1500m)
Sa, 24.08. 10:10 7(1500m)
Sa, 24.08. 10:00 7(1500m)
Sa, 24.08. 9:50 7(1500m)
Sa, 24.08. 9:40 7(1500m)
Sa, 24.08. 9:30 7(1500m)
Sa, 24.08. 9:00 3(1500m)
Sa, 24.08. 8:30 keine Wolken
Sa, 24.08. 8:00 2(1470m)
Sa, 24.08. 7:30 keine Wolken
Ortszeit Luftdruck NN (hPa) Tendenz (hPa in 3 Std.)
Sa, 24.08. 8:00 1021 + 0,1
Sa, 24.08. 2:00 1022 - 0,4
Fr, 23.08. 20:00 1021 - 0,6
Fr, 23.08. 14:00 1024 - 1,5
Fr, 23.08. 8:00 1026 + 0,4
Fr, 23.08. 2:00 1025 0,0
Do, 22.08. 20:00 1024 - 0,1
Do, 22.08. 14:00 1025 - 0,9
Ortszeit Luftdruck NN (hPa) Tendenz (hPa in 3 Std.)
Sa, 24.08. 10:30 1021 + 0,1
Sa, 24.08. 10:20 1021 keine Meldung
Sa, 24.08. 10:10 1021 keine Meldung
Sa, 24.08. 10:00 1021 + 0,1
Sa, 24.08. 9:50 1021 keine Meldung
Sa, 24.08. 9:40 1021 keine Meldung
Sa, 24.08. 9:30 1021 + 0,2
Sa, 24.08. 9:00 1021 + 0,1
Sa, 24.08. 8:30 1021 + 0,1
Sa, 24.08. 8:00 1021 + 0,1
Sa, 24.08. 7:30 1021 + 0,1
Ortszeit Schneehöhe (cm)
Sa, 24.08. 8:00 -
Sa, 24.08. 2:00 -
Fr, 23.08. 20:00 -
Fr, 23.08. 14:00 -
Fr, 23.08. 8:00 -
Fr, 23.08. 2:00 -
Do, 22.08. 20:00 -
Do, 22.08. 14:00 -
Ortszeit Schneehöhe (cm)
Sa, 24.08. 10:30 -
Sa, 24.08. 10:20 -
Sa, 24.08. 10:10 -
Sa, 24.08. 10:00 -
Sa, 24.08. 9:50 -
Sa, 24.08. 9:40 -
Sa, 24.08. 9:30 -
Sa, 24.08. 9:00 -
Sa, 24.08. 8:30 -
Sa, 24.08. 8:00 -
Sa, 24.08. 7:30 -
Link zu dieser Seite / Seite empfehlen

Das Wetter in ...